DAOO/ORN METAR and TAF weather

Enter ICAO airport designator
Station Type Date Time Source
DAOO METAR 2022/05/24 11:00 UTC NOAA

DAOO 241100Z 22014KT CAVOK 30/12 Q1010


Station Type Date Time Source
DAOO Decoded METAR 2022/05/24 11:00 UTC NOAA

Oran / Es Senia, Algeria (DAOO) 35-38N 000-36W 90M
May 24, 2022 - 07:00 AM EDT / 2022.05.24 1100 UTC
Wind: from the SW (220 degrees) at 16 MPH (14 KT):0
Visibility: greater than 7 mile(s):0
Temperature: 86 F (30 C)
Dew Point: 53 F (12 C)
Relative Humidity: 33%
Pressure (altimeter): 29.83 in. Hg (1010 hPa)
ob: DAOO 241100Z 22014KT CAVOK 30/12 Q1010
cycle: 11

Station Type Date Time Source
DAOO TAF 2022/05/24 06:34 UTC NOAA

TAF DAOO 240500Z 2406/2506 VRB02KT CAVOK
BECMG 2408/2411 20010KT
BECMG 2411/2415 26015KT

Example: see airport list